createdAt,value
2022-08-20T00:01:02.065Z,98630.91
2022-08-20T00:03:35.630Z,98629.25
2022-08-20T00:06:12.682Z,98622.91
2022-08-20T00:08:40.055Z,98636.06
2022-08-20T00:11:09.934Z,98634.25
2022-08-20T00:13:41.779Z,98638.47
2022-08-20T00:16:09.378Z,98626.97
2022-08-20T00:18:37.196Z,98630.50
2022-08-20T00:21:08.519Z,98631.47
2022-08-20T00:23:44.189Z,98633.16
2022-08-20T00:26:11.329Z,98637.63
2022-08-20T00:28:38.252Z,98638.75
2022-08-20T00:31:07.497Z,98636.28
2022-08-20T00:33:34.372Z,98640.75
2022-08-20T00:36:07.027Z,98644.56
2022-08-20T00:38:35.341Z,98651.47
2022-08-20T00:41:02.720Z,98663.41
2022-08-20T00:43:41.404Z,98662.97
2022-08-20T00:46:18.696Z,98654.00
2022-08-20T00:48:49.036Z,98655.50
2022-08-20T00:51:32.273Z,98647.66
2022-08-20T00:54:09.727Z,98649.47
2022-08-20T00:56:37.710Z,98646.97
2022-08-20T00:59:11.619Z,98653.31
2022-08-20T01:01:52.738Z,98671.25
2022-08-20T01:04:22.661Z,98664.38
2022-08-20T01:06:49.263Z,98660.88
2022-08-20T01:09:15.870Z,98660.47
2022-08-20T01:11:42.575Z,98662.59
2022-08-20T01:14:30.735Z,98663.31
2022-08-20T01:17:02.459Z,98659.97
2022-08-20T01:19:53.035Z,98660.25
2022-08-20T01:23:02.574Z,98658.69
2022-08-20T01:25:55.201Z,98659.66
2022-08-20T01:28:28.165Z,98665.50
2022-08-20T01:30:55.081Z,98665.50
2022-08-20T01:33:22.966Z,98677.72
2022-08-20T01:35:50.478Z,98674.75
2022-08-20T01:38:17.334Z,98685.28
2022-08-20T01:41:22.810Z,98678.78
2022-08-20T01:43:59.927Z,98677.97
2022-08-20T01:46:28.505Z,98684.97
2022-08-20T01:48:57.082Z,98680.34
2022-08-20T01:51:28.457Z,98676.00
2022-08-20T01:53:57.644Z,98681.03
2022-08-20T01:56:28.843Z,98679.78
2022-08-20T01:58:59.112Z,98682.00
2022-08-20T02:01:46.269Z,98686.22
2022-08-20T02:04:15.314Z,98689.72
2022-08-20T02:06:56.664Z,98690.38
2022-08-20T02:09:29.986Z,98696.88
2022-08-20T02:11:57.903Z,98690.38
2022-08-20T02:14:25.238Z,98692.06
2022-08-20T02:16:55.381Z,98692.91
2022-08-20T02:19:45.612Z,98686.75
2022-08-20T02:22:24.017Z,98685.06
2022-08-20T02:24:51.477Z,98690.31
2022-08-20T02:27:26.641Z,98698.28
2022-08-20T02:30:19.274Z,98693.94
2022-08-20T02:32:58.996Z,98695.47
2022-08-20T02:35:26.724Z,98693.53
2022-08-20T02:37:53.959Z,98699.38
2022-08-20T02:40:27.295Z,98699.69
2022-08-20T02:42:58.948Z,98690.69
2022-08-20T02:45:25.945Z,98683.00
2022-08-20T02:47:55.706Z,98686.47
2022-08-20T02:50:24.227Z,98685.22
2022-08-20T02:52:52.002Z,98695.59
2022-08-20T02:55:25.942Z,98695.72
2022-08-20T02:58:00.546Z,98690.94
2022-08-20T03:00:38.558Z,98694.28
2022-08-20T03:03:10.727Z,98692.50
2022-08-20T03:05:40.594Z,98697.13
2022-08-20T03:08:09.062Z,98698.69
2022-08-20T03:10:38.477Z,98711.06
2022-08-20T03:13:11.143Z,98705.91
2022-08-20T03:15:39.843Z,98702.28
2022-08-20T03:18:06.554Z,98691.91
2022-08-20T03:20:33.642Z,98694.56
2022-08-20T03:23:00.404Z,98695.13
2022-08-20T03:25:27.213Z,98696.66
2022-08-20T03:27:55.126Z,98698.88
2022-08-20T03:30:24.118Z,98698.72
2022-08-20T03:32:50.982Z,98706.44
2022-08-20T03:35:21.514Z,98699.97
2022-08-20T03:37:48.574Z,98702.34
2022-08-20T03:40:22.847Z,98699.97
2022-08-20T03:42:49.989Z,98702.78
2022-08-20T03:45:20.325Z,98709.66
2022-08-20T03:47:48.410Z,98720.75
2022-08-20T03:50:23.082Z,98718.97
2022-08-20T03:52:51.818Z,98723.03
2022-08-20T03:55:18.819Z,98717.03
2022-08-20T03:57:50.166Z,98716.72
2022-08-20T04:00:22.639Z,98712.09
2022-08-20T04:02:49.282Z,98707.44
2022-08-20T04:05:16.491Z,98704.50
2022-08-20T04:07:43.144Z,98705.66
2022-08-20T04:10:11.600Z,98712.94
2022-08-20T04:12:49.753Z,98714.75
2022-08-20T04:15:20.938Z,98718.69
2022-08-20T04:17:50.182Z,98725.53
2022-08-20T04:20:23.391Z,98714.75
2022-08-20T04:22:59.311Z,98718.41
2022-08-20T04:25:29.845Z,98726.09
2022-08-20T04:27:58.302Z,98715.59
2022-08-20T04:30:26.156Z,98723.00
2022-08-20T04:32:53.324Z,98721.16
2022-08-20T04:35:21.312Z,98719.06
2022-08-20T04:37:48.364Z,98725.06
2022-08-20T04:40:37.109Z,98725.78
2022-08-20T04:43:05.343Z,98727.44
2022-08-20T04:45:33.239Z,98729.97
2022-08-20T04:48:05.630Z,98739.50
2022-08-20T04:50:36.935Z,98736.38
2022-08-20T04:53:06.144Z,98735.56
2022-08-20T04:55:34.618Z,98730.91
2022-08-20T04:58:04.923Z,98732.91
2022-08-20T05:00:32.250Z,98734.56
2022-08-20T05:02:58.878Z,98746.63
2022-08-20T05:05:26.538Z,98746.34
2022-08-20T05:07:53.715Z,98743.25
2022-08-20T05:10:20.447Z,98749.44
2022-08-20T05:12:56.972Z,98755.44
2022-08-20T05:15:26.126Z,98758.38
2022-08-20T05:18:00.762Z,98757.09
2022-08-20T05:20:30.563Z,98758.06
2022-08-20T05:22:59.295Z,98758.63
2022-08-20T05:25:29.336Z,98764.22
2022-08-20T05:28:09.309Z,98761.00
2022-08-20T05:30:37.477Z,98767.00
2022-08-20T05:33:06.152Z,98762.47
2022-08-20T05:35:36.028Z,98766.66
2022-08-20T05:38:02.828Z,98767.22
2022-08-20T05:40:29.519Z,98765.78
2022-08-20T05:42:56.162Z,98771.81
2022-08-20T05:45:22.864Z,98762.50
2022-08-20T05:47:54.245Z,98768.22
2022-08-20T05:50:23.646Z,98759.78
2022-08-20T05:52:50.465Z,98768.75
2022-08-20T05:55:17.129Z,98763.97
2022-08-20T05:57:45.766Z,98760.16
2022-08-20T06:00:14.277Z,98766.19
2022-08-20T06:02:59.745Z,98768.16
2022-08-20T06:05:27.720Z,98773.50
2022-08-20T06:07:54.948Z,98769.81
2022-08-20T06:10:34.887Z,98770.13
2022-08-20T06:13:03.028Z,98775.78
2022-08-20T06:15:31.179Z,98777.63
2022-08-20T06:17:58.701Z,98779.50
2022-08-20T06:20:26.276Z,98767.00
2022-08-20T06:22:52.964Z,98783.22
2022-08-20T06:25:20.139Z,98783.22
2022-08-20T06:27:46.860Z,98778.94
2022-08-20T06:30:15.969Z,98777.13
2022-08-20T06:32:42.847Z,98790.84
2022-08-20T06:35:10.804Z,98785.44
2022-08-20T06:37:39.679Z,98792.34
2022-08-20T06:40:19.951Z,98791.22
2022-08-20T06:42:48.872Z,98786.44
2022-08-20T06:45:19.107Z,98788.75
2022-08-20T06:47:47.695Z,98782.47
2022-08-20T06:50:31.936Z,98790.16
2022-08-20T06:56:09.811Z,98788.97
2022-08-20T06:58:38.783Z,98793.00
2022-08-20T07:01:11.243Z,98787.78
2022-08-20T07:03:54.848Z,98790.47
2022-08-20T07:06:25.035Z,98791.50
2022-08-20T07:08:51.656Z,98794.66
2022-08-20T07:11:18.312Z,98795.13
2022-08-20T07:13:45.467Z,98798.00
2022-08-20T07:16:12.239Z,98800.75
2022-08-20T07:18:38.862Z,98795.16
2022-08-20T07:21:06.204Z,98798.56
2022-08-20T07:23:33.190Z,98789.44
2022-08-20T07:26:00.114Z,98787.00
2022-08-20T07:28:32.499Z,98783.94
2022-08-20T07:31:17.544Z,98790.50
2022-08-20T07:33:47.159Z,98785.81
2022-08-20T07:36:17.763Z,98786.66
2022-08-20T07:38:50.879Z,98786.84
2022-08-20T07:41:17.566Z,98786.00
2022-08-20T07:43:45.756Z,98780.34
2022-08-20T07:46:20.773Z,98784.34
2022-08-20T07:48:49.956Z,98789.41
2022-08-20T07:51:19.620Z,98788.22
2022-08-20T07:53:48.700Z,98790.72
2022-08-20T07:56:19.366Z,98792.00
2022-08-20T07:58:50.536Z,98790.88
2022-08-20T08:01:26.410Z,98792.28
2022-08-20T08:03:53.644Z,98791.72
2022-08-20T08:06:29.518Z,98790.00
2022-08-20T08:09:14.558Z,98783.66
2022-08-20T08:11:50.334Z,98786.38
2022-08-20T08:14:24.831Z,98784.63
2022-08-20T08:16:54.444Z,98786.25
2022-08-20T08:19:21.447Z,98778.34
2022-08-20T08:21:48.163Z,98793.00
2022-08-20T08:24:19.956Z,98788.75
2022-08-20T08:26:50.808Z,98793.84
2022-08-20T08:29:17.374Z,98785.03
2022-08-20T08:31:44.594Z,98793.72
2022-08-20T08:34:11.622Z,98780.88
2022-08-20T08:36:39.279Z,98781.66
2022-08-20T08:39:06.641Z,98781.63
2022-08-20T08:41:49.843Z,98785.97
2022-08-20T08:44:23.776Z,98786.06
2022-08-20T08:46:57.715Z,98791.69
2022-08-20T08:49:37.219Z,98792.38
2022-08-20T08:52:14.716Z,98786.53
2022-08-20T08:54:48.932Z,98798.25
2022-08-20T08:57:16.786Z,98800.81
2022-08-20T08:59:58.290Z,98797.50
2022-08-20T09:02:32.980Z,98797.94
2022-08-20T09:05:04.195Z,98797.75
2022-08-20T09:07:33.567Z,98801.78
2022-08-20T09:10:02.306Z,98804.38
2022-08-20T09:12:29.041Z,98803.41
2022-08-20T09:14:55.736Z,98810.75
2022-08-20T09:17:23.529Z,98814.63
2022-08-20T09:19:54.204Z,98808.72
2022-08-20T09:22:21.823Z,98805.13
2022-08-20T09:24:49.846Z,98804.03
2022-08-20T09:27:16.676Z,98809.31
2022-08-20T09:29:43.824Z,98813.31
2022-08-20T09:32:12.678Z,98816.56
2022-08-20T09:34:45.502Z,98812.16
2022-08-20T09:37:12.474Z,98813.16
2022-08-20T09:39:39.411Z,98816.00
2022-08-20T09:42:12.452Z,98807.44
2022-08-20T09:44:40.382Z,98814.13
2022-08-20T09:47:07.227Z,98809.94
2022-08-20T09:49:34.038Z,98812.94
2022-08-20T09:52:01.688Z,98814.72
2022-08-20T09:54:30.162Z,98802.91
2022-08-20T09:57:06.327Z,98806.88
2022-08-20T09:59:34.131Z,98806.69
2022-08-20T10:02:00.778Z,98810.31
2022-08-20T10:04:27.565Z,98803.75
2022-08-20T10:06:54.337Z,98800.63
2022-08-20T10:09:20.925Z,98808.47
2022-08-20T10:11:47.630Z,98797.25
2022-08-20T10:14:14.315Z,98799.97
2022-08-20T10:16:40.910Z,98800.81
2022-08-20T10:19:10.261Z,98795.97
2022-08-20T10:21:39.036Z,98806.03
2022-08-20T10:24:06.171Z,98795.97
2022-08-20T10:26:33.077Z,98794.19
2022-08-20T10:28:59.815Z,98802.00
2022-08-20T10:31:26.575Z,98798.47
2022-08-20T10:33:53.349Z,98803.25
2022-08-20T10:36:20.154Z,98803.09
2022-08-20T10:38:48.535Z,98807.16
2022-08-20T10:41:15.415Z,98805.38
2022-08-20T10:43:42.083Z,98804.97
2022-08-20T10:46:09.309Z,98806.03
2022-08-20T10:48:36.584Z,98800.38
2022-08-20T10:51:04.020Z,98808.78
2022-08-20T10:53:31.280Z,98802.25
2022-08-20T10:55:58.958Z,98799.84
2022-08-20T10:58:30.515Z,98812.84
2022-08-20T11:01:08.101Z,98798.69
2022-08-20T11:03:35.162Z,98814.16
2022-08-20T11:06:02.584Z,98818.09
2022-08-20T11:08:34.207Z,98807.06
2022-08-20T11:11:03.949Z,98807.00
2022-08-20T11:13:30.682Z,98798.81
2022-08-20T11:15:57.405Z,98803.97
2022-08-20T11:18:24.094Z,98799.56
2022-08-20T11:20:50.778Z,98806.88
2022-08-20T11:23:20.182Z,98805.34
2022-08-20T11:25:46.911Z,98802.31
2022-08-20T11:28:15.435Z,98791.59
2022-08-20T11:30:42.125Z,98792.13
2022-08-20T11:33:08.937Z,98786.59
2022-08-20T11:35:49.032Z,98791.06
2022-08-20T11:38:17.566Z,98793.78
2022-08-20T11:40:44.418Z,98797.34
2022-08-20T11:43:16.415Z,98807.28
2022-08-20T11:45:46.544Z,98791.63
2022-08-20T11:48:13.691Z,98799.69
2022-08-20T11:50:40.919Z,98797.38
2022-08-20T11:53:08.155Z,98790.88
2022-08-20T11:55:35.360Z,98789.22
2022-08-20T11:58:02.325Z,98794.22
2022-08-20T12:00:32.927Z,98788.56
2022-08-20T12:03:05.451Z,98785.81
2022-08-20T12:05:34.608Z,98778.47
2022-08-20T12:08:02.303Z,98792.94
2022-08-20T12:10:30.052Z,98790.78
2022-08-20T12:12:57.596Z,98782.34
2022-08-20T12:15:26.758Z,98781.59
2022-08-20T12:17:55.136Z,98779.69
2022-08-20T12:20:22.777Z,98783.56
2022-08-20T12:22:49.364Z,98782.22
2022-08-20T12:25:15.975Z,98783.03
2022-08-20T12:27:42.859Z,98784.06
2022-08-20T12:30:14.293Z,98783.19
2022-08-20T12:32:42.396Z,98773.91
2022-08-20T12:35:11.447Z,98754.81
2022-08-20T12:37:38.247Z,98769.25
2022-08-20T12:40:09.794Z,98767.03
2022-08-20T12:42:37.527Z,98763.50
2022-08-20T12:45:05.179Z,98761.47
2022-08-20T12:47:37.770Z,98764.31
2022-08-20T12:50:14.143Z,98755.72
2022-08-20T12:52:41.643Z,98758.16
2022-08-20T12:55:10.052Z,98755.16
2022-08-20T12:57:49.770Z,98750.09
2022-08-20T13:00:32.080Z,98764.78
2022-08-20T13:03:01.665Z,98753.31
2022-08-20T13:05:29.440Z,98746.00
2022-08-20T13:07:56.706Z,98741.72
2022-08-20T13:10:32.848Z,98747.56
2022-08-20T13:13:02.731Z,98756.94
2022-08-20T13:15:31.390Z,98757.28
2022-08-20T13:18:00.559Z,98751.84
2022-08-20T13:20:34.284Z,98755.81
2022-08-20T13:23:03.350Z,98759.13
2022-08-20T13:25:30.134Z,98755.63
2022-08-20T13:28:02.291Z,98754.84
2022-08-20T13:30:28.961Z,98752.38
2022-08-20T13:32:55.736Z,98752.66
2022-08-20T13:35:22.801Z,98750.63
2022-08-20T13:37:50.638Z,98752.94
2022-08-20T13:40:17.609Z,98745.44
2022-08-20T13:42:44.228Z,98740.00
2022-08-20T13:45:11.010Z,98732.59
2022-08-20T13:47:40.036Z,98739.72
2022-08-20T13:50:12.015Z,98739.88
2022-08-20T13:52:39.387Z,98738.53
2022-08-20T13:55:11.346Z,98734.88
2022-08-20T13:57:38.882Z,98740.09
2022-08-20T14:00:10.340Z,98732.38
2022-08-20T14:02:37.060Z,98729.78
2022-08-20T14:05:03.843Z,98732.22
2022-08-20T14:07:32.772Z,98737.78
2022-08-20T14:10:11.499Z,98743.53
2022-08-20T14:12:38.718Z,98740.94
2022-08-20T14:15:06.593Z,98742.41
2022-08-20T14:17:43.046Z,98744.19
2022-08-20T14:20:09.823Z,98732.72
2022-08-20T14:22:37.602Z,98730.09
2022-08-20T14:25:06.459Z,98737.91
2022-08-20T14:27:34.105Z,98732.06
2022-08-20T14:30:02.128Z,98731.63
2022-08-20T14:32:28.914Z,98736.09
2022-08-20T14:34:58.189Z,98731.34
2022-08-20T14:37:33.495Z,98731.28
2022-08-20T14:40:02.407Z,98731.41
2022-08-20T14:42:29.660Z,98732.78
2022-08-20T14:44:58.745Z,98723.81
2022-08-20T14:47:30.814Z,98728.03
2022-08-20T14:50:04.425Z,98729.69
2022-08-20T14:52:32.975Z,98716.59
2022-08-20T14:54:59.596Z,98712.31
2022-08-20T14:57:26.247Z,98713.38
2022-08-20T14:59:53.688Z,98715.91
2022-08-20T15:02:20.345Z,98719.56
2022-08-20T15:04:51.668Z,98721.81
2022-08-20T15:07:33.589Z,98716.25
2022-08-20T15:10:01.125Z,98714.13
2022-08-20T15:12:28.437Z,98723.31
2022-08-20T15:14:55.398Z,98711.34
2022-08-20T15:17:27.050Z,98713.16
2022-08-20T15:19:54.853Z,98716.03
2022-08-20T15:22:22.669Z,98712.97
2022-08-20T15:24:50.157Z,98711.44
2022-08-20T15:27:24.856Z,98709.94
2022-08-20T15:29:52.584Z,98712.91
2022-08-20T15:32:20.563Z,98702.72
2022-08-20T15:34:47.666Z,98708.69
2022-08-20T15:37:24.933Z,98706.44
2022-08-20T15:39:52.223Z,98709.22
2022-08-20T15:42:21.429Z,98710.75
2022-08-20T15:44:48.694Z,98706.84
2022-08-20T15:47:23.642Z,98712.94
2022-08-20T15:49:55.162Z,98704.94
2022-08-20T15:52:23.487Z,98703.50
2022-08-20T15:54:50.233Z,98701.03
2022-08-20T15:58:14.312Z,98698.56
2022-08-20T16:01:24.701Z,98703.63
2022-08-20T16:04:12.028Z,98692.63
2022-08-20T16:06:41.244Z,98709.03
2022-08-20T16:09:38.956Z,98702.59
2022-08-20T16:12:23.876Z,98706.34
2022-08-20T16:14:57.114Z,98705.31
2022-08-20T16:17:40.341Z,98708.84
2022-08-20T16:20:35.148Z,98713.91
2022-08-20T16:23:03.800Z,98720.56
2022-08-20T16:25:51.499Z,98714.78
2022-08-20T16:28:26.203Z,98718.31
2022-08-20T16:31:02.543Z,98708.56
2022-08-20T16:33:35.358Z,98716.25
2022-08-20T16:36:18.512Z,98700.22
2022-08-20T16:38:59.491Z,98699.56
2022-08-20T16:41:34.803Z,98703.53
2022-08-20T16:44:26.399Z,98704.97
2022-08-20T16:47:13.555Z,98705.34
2022-08-20T16:49:49.708Z,98707.19
2022-08-20T16:52:16.368Z,98708.00
2022-08-20T16:54:44.787Z,98700.13
2022-08-20T16:57:17.151Z,98703.84
2022-08-20T16:59:55.405Z,98706.66
2022-08-20T17:02:22.849Z,98708.66
2022-08-20T17:04:59.378Z,98699.88
2022-08-20T17:07:51.188Z,98704.84
2022-08-20T17:10:22.986Z,98698.31
2022-08-20T17:13:00.691Z,98698.69
2022-08-20T17:15:30.804Z,98694.13
2022-08-20T17:17:57.777Z,98703.72
2022-08-20T17:20:28.187Z,98692.75
2022-08-20T17:23:14.707Z,98695.59
2022-08-20T17:25:41.456Z,98696.00
2022-08-20T17:28:16.954Z,98704.84
2022-08-20T17:30:45.739Z,98701.50
2022-08-20T17:33:21.171Z,98708.00
2022-08-20T17:36:17.468Z,98710.25
2022-08-20T17:38:59.434Z,98707.81
2022-08-20T17:41:35.767Z,98707.72
2022-08-20T17:44:20.005Z,98709.88
2022-08-20T17:46:48.284Z,98712.78
2022-08-20T17:49:19.099Z,98718.63
2022-08-20T17:51:51.856Z,98719.91
2022-08-20T17:54:22.695Z,98728.72
2022-08-20T17:56:55.739Z,98721.56
2022-08-20T17:59:59.811Z,98720.19
2022-08-20T18:02:17.187Z,98722.75
2022-08-20T18:04:45.061Z,98722.84
2022-08-20T18:07:11.614Z,98719.03
2022-08-20T18:09:53.056Z,98721.78
2022-08-20T18:12:38.711Z,98723.41
2022-08-20T18:15:24.621Z,98720.47
2022-08-20T18:18:00.533Z,98729.44
2022-08-20T18:20:37.668Z,98731.34
2022-08-20T18:23:26.389Z,98730.41
2022-08-20T18:25:56.053Z,98728.63
2022-08-20T18:28:29.325Z,98733.00
2022-08-20T18:31:00.110Z,98727.69
2022-08-20T18:33:46.654Z,98735.47
2022-08-20T18:36:30.534Z,98735.81
2022-08-20T18:39:05.102Z,98743.06
2022-08-20T18:41:40.579Z,98742.94
2022-08-20T18:44:26.242Z,98749.53
2022-08-20T18:47:03.993Z,98748.88
2022-08-20T18:49:35.799Z,98745.22
2022-08-20T18:52:16.441Z,98749.78
2022-08-20T18:54:51.284Z,98749.63
2022-08-20T18:57:41.274Z,98751.31
2022-08-20T19:00:12.222Z,98749.78
2022-08-20T19:02:53.904Z,98751.81
2022-08-20T19:05:31.783Z,98749.31
2022-08-20T19:08:02.554Z,98748.84
2022-08-20T19:10:41.149Z,98753.03
2022-08-20T19:13:18.887Z,98752.34
2022-08-20T19:15:59.465Z,98751.69
2022-08-20T19:18:37.351Z,98764.03
2022-08-20T19:21:04.722Z,98763.19
2022-08-20T19:23:38.861Z,98766.88
2022-08-20T19:26:25.164Z,98770.97
2022-08-20T19:29:00.534Z,98770.28
2022-08-20T19:31:35.192Z,98777.28
2022-08-20T19:34:19.795Z,98771.91
2022-08-20T19:36:54.942Z,98778.88
2022-08-20T19:39:24.690Z,98786.22
2022-08-20T19:42:18.832Z,98793.97
2022-08-20T19:45:01.713Z,98801.78
2022-08-20T19:47:40.704Z,98792.19
2022-08-20T19:50:29.211Z,98792.06
2022-08-20T19:53:17.062Z,98794.53
2022-08-20T19:55:44.083Z,98797.31
2022-08-20T19:58:26.107Z,98791.22
2022-08-20T20:00:54.141Z,98801.16
2022-08-20T20:03:28.634Z,98800.09
2022-08-20T20:05:59.811Z,98801.69
2022-08-20T20:08:39.248Z,98803.84
2022-08-20T20:11:06.111Z,98798.41
2022-08-20T20:13:37.790Z,98796.75
2022-08-20T20:16:07.446Z,98801.84
2022-08-20T20:18:39.076Z,98797.22
2022-08-20T20:21:24.362Z,98803.88
2022-08-20T20:23:58.554Z,98813.47
2022-08-20T20:26:31.400Z,98814.06
2022-08-20T20:29:16.516Z,98815.34
2022-08-20T20:31:53.387Z,98817.66
2022-08-20T20:34:27.200Z,98815.56
2022-08-20T20:37:08.421Z,98812.50
2022-08-20T20:39:39.963Z,98811.25
2022-08-20T20:42:10.880Z,98811.69
2022-08-20T20:44:39.043Z,98810.63
2022-08-20T20:47:09.562Z,98812.03
2022-08-20T20:49:58.402Z,98809.00
2022-08-20T20:52:37.452Z,98799.34
2022-08-20T20:55:25.014Z,98803.72
2022-08-20T20:57:53.491Z,98804.16
2022-08-20T21:00:22.762Z,98810.19
2022-08-20T21:02:49.808Z,98808.53
2022-08-20T21:05:18.626Z,98812.19
2022-08-20T21:07:50.155Z,98812.47
2022-08-20T21:10:19.787Z,98806.44
2022-08-20T21:12:51.924Z,98813.03
2022-08-20T21:15:20.561Z,98809.97
2022-08-20T21:17:47.286Z,98814.88
2022-08-20T21:20:14.747Z,98819.94
2022-08-20T21:22:41.371Z,98819.38
2022-08-20T21:25:08.423Z,98825.13
2022-08-20T21:27:35.676Z,98822.06
2022-08-20T21:30:03.115Z,98821.78
2022-08-20T21:32:29.718Z,98817.72
2022-08-20T21:34:56.339Z,98820.66
2022-08-20T21:37:23.085Z,98818.69
2022-08-20T21:39:49.680Z,98816.44
2022-08-20T21:42:25.767Z,98816.72
2022-08-20T21:44:56.955Z,98808.47
2022-08-20T21:47:23.717Z,98803.81
2022-08-20T21:49:50.305Z,98807.47
2022-08-20T21:52:17.082Z,98809.53
2022-08-20T21:54:43.669Z,98800.97
2022-08-20T21:57:20.518Z,98805.59
2022-08-20T21:59:47.755Z,98805.19
2022-08-20T22:02:16.399Z,98807.13
2022-08-20T22:04:43.585Z,98805.84
2022-08-20T22:07:10.751Z,98808.91
2022-08-20T22:09:39.008Z,98813.53
2022-08-20T22:12:11.345Z,98806.13
2022-08-20T22:14:37.934Z,98809.03
2022-08-20T22:17:04.698Z,98809.47
2022-08-20T22:19:31.513Z,98812.50
2022-08-20T22:21:58.277Z,98815.44
2022-08-20T22:24:27.472Z,98816.28
2022-08-20T22:26:54.382Z,98813.75
2022-08-20T22:29:21.433Z,98809.56
2022-08-20T22:31:48.110Z,98815.81
2022-08-20T22:34:18.990Z,98808.94
2022-08-20T22:36:46.281Z,98816.59
2022-08-20T22:39:12.901Z,98808.31
2022-08-20T22:41:39.882Z,98816.44
2022-08-20T22:44:07.039Z,98811.13
2022-08-20T22:46:37.565Z,98813.47
2022-08-20T22:49:06.984Z,98815.25
2022-08-20T22:51:38.715Z,98816.50
2022-08-20T22:54:08.212Z,98820.25
2022-08-20T22:56:52.968Z,98822.94
2022-08-20T22:59:20.568Z,98825.25
2022-08-20T23:01:48.086Z,98821.44
2022-08-20T23:04:25.793Z,98822.22
2022-08-20T23:06:54.052Z,98816.03
2022-08-20T23:09:21.301Z,98814.25
2022-08-20T23:11:49.018Z,98817.63
2022-08-20T23:14:15.825Z,98814.50
2022-08-20T23:16:45.376Z,98819.94
2022-08-20T23:19:17.474Z,98822.47
2022-08-20T23:21:44.321Z,98819.34
2022-08-20T23:24:14.486Z,98814.28
2022-08-20T23:26:41.765Z,98820.72
2022-08-20T23:29:22.253Z,98823.03
2022-08-20T23:31:51.910Z,98823.41
2022-08-20T23:34:18.603Z,98829.09
2022-08-20T23:36:45.296Z,98824.16
2022-08-20T23:39:12.782Z,98822.88
2022-08-20T23:41:39.418Z,98819.91
2022-08-20T23:44:25.028Z,98829.78
2022-08-20T23:46:57.309Z,98827.38
2022-08-20T23:49:24.480Z,98823.44
2022-08-20T23:51:51.111Z,98817.63
2022-08-20T23:54:18.007Z,98820.53
2022-08-20T23:56:44.682Z,98809.59
2022-08-20T23:59:11.276Z,98815.16
